Observation data for Brownfield on 02/13/2018      Previous  Date  Next       Current Mesonet Observations  Soil Data  Daily Summary Page  Observations in Plain Language
KBWS 130600Z 10007KT M02/M11 A3023 RMK A01 T10171112  RH  049%=      5-min Rain = 0
KBWS 130605Z 11008KT M02/M11 A3022 RMK A01 T10191111  RH  050%=      5-min Rain = 0
KBWS 130610Z 10007KT M02/M11 A3022 RMK A01 T10191110  RH  050%=      5-min Rain = 0
KBWS 130615Z 10007KT M02/M11 A3023 RMK A01 T10171110  RH  050%=      5-min Rain = 0
KBWS 130620Z 10007KT M02/M11 A3023 RMK A01 T10151109  RH  049%=      5-min Rain = 0
KBWS 130625Z 10008KT M02/M11 A3023 RMK A01 T10151109  RH  049%=      5-min Rain = 0
KBWS 130630Z 09007KT M01/M11 A3023 RMK A01 T10141108  RH  049%=      5-min Rain = 0
KBWS 130635Z 10007KT M02/M11 A3023 RMK A01 T10151108  RH  050%=      5-min Rain = 0
KBWS 130640Z 10006KT M02/M11 A3023 RMK A01 T10171109  RH  050%=      5-min Rain = 0
KBWS 130645Z 10006KT M02/M11 A3024 RMK A01 T10201109  RH  051%=      5-min Rain = 0
KBWS 130650Z 09006KT M02/M11 A3023 RMK A01 T10201109  RH  051%=      5-min Rain = 0
KBWS 130655Z 09006KT M02/M11 A3023 RMK A01 T10191109  RH  051%=      5-min Rain = 0
KBWS 130700Z 09006KT M02/M11 A3023 RMK A01 T10201109  RH  051%=      5-min Rain = 0
KBWS 130705Z 09006KT M02/M11 A3023 RMK A01 T10191111  RH  050%=      5-min Rain = 0
KBWS 130710Z 09006KT M02/M11 A3023 RMK A01 T10211112  RH  050%=      5-min Rain = 0
KBWS 130715Z 09005KT M02/M11 A3023 RMK A01 T10231113  RH  051%=      5-min Rain = 0
KBWS 130720Z 09006KT M02/M11 A3022 RMK A01 T10221111  RH  051%=      5-min Rain = 0
KBWS 130725Z 09006KT M02/M11 A3022 RMK A01 T10201111  RH  050%=      5-min Rain = 0
KBWS 130730Z 09006KT M02/M11 A3022 RMK A01 T10211111  RH  051%=      5-min Rain = 0
KBWS 130735Z 09006KT M02/M11 A3022 RMK A01 T10221111  RH  051%=      5-min Rain = 0
KBWS 130740Z 09006KT M02/M11 A3022 RMK A01 T10221111  RH  051%=      5-min Rain = 0
KBWS 130745Z 08005KT M02/M11 A3022 RMK A01 T10221110  RH  052%=      5-min Rain = 0
KBWS 130750Z 08005KT M02/M10 A3022 RMK A01 T10181102  RH  053%=      5-min Rain = 0
KBWS 130755Z 07005KT M02/M10 A3022 RMK A01 T10171098  RH  054%=      5-min Rain = 0
KBWS 130800Z 08006KT M02/M10 A3022 RMK A01 T10171102  RH  053%=      5-min Rain = 0
KBWS 130805Z 09006KT M02/M11 A3022 RMK A01 T10201108  RH  051%=      5-min Rain = 0
KBWS 130810Z 09006KT M02/M11 A3022 RMK A01 T10201109  RH  051%=      5-min Rain = 0
KBWS 130815Z 09006KT M02/M11 A3023 RMK A01 T10201108  RH  052%=      5-min Rain = 0
KBWS 130820Z 09006KT M02/M11 A3023 RMK A01 T10201109  RH  051%=      5-min Rain = 0
KBWS 130825Z 08006KT M02/M11 A3023 RMK A01 T10221109  RH  052%=      5-min Rain = 0
KBWS 130830Z 07006KT M02/M10 A3023 RMK A01 T10181100  RH  054%=      5-min Rain = 0
KBWS 130835Z 07006KT M02/M10 A3023 RMK A01 T10171099  RH  054%=      5-min Rain = 0
KBWS 130840Z 09006KT M02/M11 A3023 RMK A01 T10191105  RH  052%=      5-min Rain = 0
KBWS 130845Z 09005KT M02/M11 A3023 RMK A01 T10201107  RH  052%=      5-min Rain = 0
KBWS 130850Z 09005KT M02/M11 A3023 RMK A01 T10201106  RH  053%=      5-min Rain = 0
KBWS 130855Z 08006KT M02/M11 A3023 RMK A01 T10211105  RH  053%=      5-min Rain = 0
KBWS 130900Z 06004KT M02/M10 A3024 RMK A01 T10191101  RH  054%=      5-min Rain = 0
KBWS 130905Z 04001KT M02/M11 A3024 RMK A01 T10241106  RH  054%=      5-min Rain = 0
KBWS 130910Z 08002KT M02/M10 A3024 RMK A01 T10211103  RH  054%=      5-min Rain = 0
KBWS 130915Z 06001KT M02/M10 A3025 RMK A01 T10201103  RH  054%=      5-min Rain = 0
KBWS 130920Z 05003KT M02/M10 A3025 RMK A01 T10191103  RH  053%=      5-min Rain = 0
KBWS 130925Z 02003KT M02/M10 A3025 RMK A01 T10181102  RH  053%=      5-min Rain = 0
KBWS 130930Z 02004KT M02/M10 A3025 RMK A01 T10191102  RH  054%=      5-min Rain = 0
KBWS 130935Z 04004KT M02/M10 A3025 RMK A01 T10201101  RH  054%=      5-min Rain = 0
KBWS 130940Z 04004KT M02/M10 A3025 RMK A01 T10191100  RH  055%=      5-min Rain = 0
KBWS 130945Z 03004KT M02/M10 A3024 RMK A01 T10181101  RH  054%=      5-min Rain = 0
KBWS 130950Z 03004KT M02/M10 A3024 RMK A01 T10211103  RH  054%=      5-min Rain = 0
KBWS 130955Z 06005KT M02/M10 A3024 RMK A01 T10211098  RH  056%=      5-min Rain = 0
KBWS 131000Z 07005KT M02/M09 A3023 RMK A01 T10181093  RH  057%=      5-min Rain = 0
KBWS 131005Z 08005KT M02/M10 A3023 RMK A01 T10221102  RH  055%=      5-min Rain = 0
KBWS 131010Z 09005KT M03/M11 A3022 RMK A01 T10271107  RH  055%=      5-min Rain = 0
KBWS 131015Z 09005KT M03/M11 A3022 RMK A01 T10301108  RH  056%=      5-min Rain = 0
KBWS 131020Z 08005KT M03/M11 A3022 RMK A01 T10311108  RH  056%=      5-min Rain = 0
KBWS 131025Z 07005KT M03/M10 A3022 RMK A01 T10271100  RH  058%=      5-min Rain = 0
KBWS 131030Z 06005KT M03/M10 A3022 RMK A01 T10261098  RH  058%=      5-min Rain = 0
KBWS 131035Z 06005KT M03/M10 A3022 RMK A01 T10261099  RH  058%=      5-min Rain = 0
KBWS 131040Z 07006KT M02/M10 A3022 RMK A01 T10241098  RH  058%=      5-min Rain = 0
KBWS 131045Z 07006KT M03/M10 A3022 RMK A01 T10261101  RH  057%=      5-min Rain = 0
KBWS 131050Z 07006KT M03/M10 A3023 RMK A01 T10261101  RH  057%=      5-min Rain = 0
KBWS 131055Z 06005KT M03/M10 A3023 RMK A01 T10261102  RH  057%=      5-min Rain = 0
KBWS 131100Z 06004KT M03/M11 A3024 RMK A01 T10321110  RH  056%=      5-min Rain = 0
KBWS 131105Z 07004KT M03/M10 A3024 RMK A01 T10311103  RH  058%=      5-min Rain = 0
KBWS 131110Z 07004KT M03/M11 A3024 RMK A01 T10291105  RH  057%=      5-min Rain = 0
KBWS 131115Z 07003KT M03/M11 A3024 RMK A01 T10341109  RH  056%=      5-min Rain = 0
KBWS 131120Z 08004KT M03/M10 A3024 RMK A01 T10321102  RH  059%=      5-min Rain = 0
KBWS 131125Z 08004KT M03/M10 A3024 RMK A01 T10311104  RH  058%=      5-min Rain = 0
KBWS 131130Z 07004KT M03/M11 A3024 RMK A01 T10321105  RH  058%=      5-min Rain = 0
KBWS 131135Z 07003KT M03/M10 A3025 RMK A01 T10321103  RH  059%=      5-min Rain = 0
KBWS 131140Z 08003KT M03/M10 A3025 RMK A01 T10311103  RH  058%=      5-min Rain = 0
KBWS 131145Z 09003KT M03/M11 A3025 RMK A01 T10321106  RH  057%=      5-min Rain = 0
KBWS 131150Z 10004KT M03/M11 A3025 RMK A01 T10331108  RH  057%=      5-min Rain = 0
KBWS 131155Z 09003KT M03/M11 A3026 RMK A01 T10341108  RH  057%=      5-min Rain = 0
KBWS 131200Z 08002KT M03/M11 A3026 RMK A01 T10321105  RH  058%=      5-min Rain = 0
KBWS 131205Z 06002KT M03/M11 A3026 RMK A01 T10321106  RH  057%=      5-min Rain = 0
KBWS 131210Z 06002KT M03/M11 A3025 RMK A01 T10331106  RH  057%=      5-min Rain = 0
KBWS 131215Z 04002KT M03/M11 A3025 RMK A01 T10321106  RH  057%=      5-min Rain = 0
KBWS 131220Z 03002KT M03/M11 A3025 RMK A01 T10321105  RH  058%=      5-min Rain = 0
KBWS 131225Z 04003KT M03/M10 A3025 RMK A01 T10311104  RH  058%=      5-min Rain = 0
KBWS 131230Z 05003KT M03/M10 A3026 RMK A01 T10311104  RH  058%=      5-min Rain = 0
KBWS 131235Z 07003KT M03/M10 A3026 RMK A01 T10311100  RH  059%=      5-min Rain = 0
KBWS 131240Z 07004KT M03/M09 A3026 RMK A01 T10281094  RH  061%=      5-min Rain = 0
KBWS 131245Z 07004KT M03/M09 A3026 RMK A01 T10281094  RH  061%=      5-min Rain = 0
KBWS 131250Z 07004KT M03/M10 A3026 RMK A01 T10301097  RH  060%=      5-min Rain = 0
KBWS 131255Z 07004KT M03/M10 A3026 RMK A01 T10311097  RH  061%=      5-min Rain = 0
KBWS 131300Z 07003KT M03/M10 A3026 RMK A01 T10311096  RH  061%=      5-min Rain = 0
KBWS 131305Z 08003KT M03/M10 A3026 RMK A01 T10321099  RH  061%=      5-min Rain = 0
KBWS 131310Z 08003KT M03/M10 A3026 RMK A01 T10331101  RH  060%=      5-min Rain = 0
KBWS 131315Z 08003KT M03/M10 A3026 RMK A01 T10331099  RH  061%=      5-min Rain = 0
KBWS 131320Z 09003KT M03/M10 A3027 RMK A01 T10341101  RH  061%=      5-min Rain = 0
KBWS 131325Z 06002KT M04/M10 A3027 RMK A01 T10351102  RH  061%=      5-min Rain = 0
KBWS 131330Z 01002KT M04/M11 A3028 RMK A01 T10391108  RH  060%=      5-min Rain = 0
KBWS 131335Z 02003KT M04/M10 A3028 RMK A01 T10371103  RH  061%=      5-min Rain = 0
KBWS 131340Z 05003KT M04/M10 A3028 RMK A01 T10351100  RH  061%=      5-min Rain = 0
KBWS 131345Z 06003KT M03/M09 A3028 RMK A01 T10301093  RH  063%=      5-min Rain = 0
KBWS 131350Z 06002KT M03/M09 A3028 RMK A01 T10281093  RH  062%=      5-min Rain = 0
KBWS 131355Z 08002KT M03/M09 A3028 RMK A01 T10271094  RH  061%=      5-min Rain = 0
KBWS 131400Z 08003KT M02/M09 A3028 RMK A01 T10241091  RH  060%=      5-min Rain = 0
KBWS 131405Z 08003KT M02/M09 A3028 RMK A01 T10231093  RH  060%=      5-min Rain = 0
KBWS 131410Z 09003KT M02/M09 A3028 RMK A01 T10221093  RH  059%=      5-min Rain = 0
KBWS 131415Z 10002KT M02/M09 A3029 RMK A01 T10201092  RH  059%=      5-min Rain = 0
KBWS 131420Z 11003KT M02/M09 A3029 RMK A01 T10171089  RH  059%=      5-min Rain = 0
KBWS 131425Z 13004KT M01/M08 A3029 RMK A01 T10121084  RH  059%=      5-min Rain = 0
KBWS 131430Z 13005KT M01/M08 A3028 RMK A01 T10061079  RH  058%=      5-min Rain = 0
KBWS 131435Z 14005KT M00/M08 A3028 RMK A01 T10031076  RH  059%=      5-min Rain = 0
KBWS 131440Z 15007KT 00/M07 A3029 RMK A01 T00041069  RH  059%=      5-min Rain = 0
KBWS 131445Z 15007KT 01/M07 A3029 RMK A01 T00081066  RH  058%=      5-min Rain = 0
KBWS 131450Z 15008KT 01/M06 A3029 RMK A01 T00121062  RH  058%=      5-min Rain = 0
KBWS 131455Z 15007KT 01/M06 A3029 RMK A01 T00101063  RH  059%=      5-min Rain = 0
KBWS 131500Z 15008KT 01/M06 A3029 RMK A01 T00141060  RH  059%=      5-min Rain = 0
KBWS 131505Z 16007KT 02/M06 A303 RMK A01 T00201056  RH  058%=      5-min Rain = 0
KBWS 131510Z 16008KT 02/M06 A303 RMK A01 T00221055  RH  057%=      5-min Rain = 0
KBWS 131515Z 15007KT 02/M06 A303 RMK A01 T00221055  RH  057%=      5-min Rain = 0
KBWS 131520Z 16007KT 02/M05 A303 RMK A01 T00211054  RH  058%=      5-min Rain = 0
KBWS 131525Z 16006KT 03/M05 A303 RMK A01 T00261051  RH  058%=      5-min Rain = 0
KBWS 131530Z 17008KT 03/M05 A3031 RMK A01 T00321049  RH  056%=      5-min Rain = 0
KBWS 131535Z 16007KT 03/M05 A3031 RMK A01 T00341045  RH  057%=      5-min Rain = 0
KBWS 131540Z 19008KT 04/M04 A3032 RMK A01 T00381037  RH  058%=      5-min Rain = 0
KBWS 131545Z 19009KT 04/M03 A3032 RMK A01 T00401031  RH  060%=      5-min Rain = 0
KBWS 131550Z 20009KT 04/M03 A3032 RMK A01 T00421031  RH  060%=      5-min Rain = 0
KBWS 131555Z 18012KT 05/M01 A3031 RMK A01 T00501014  RH  064%=      5-min Rain = 0
KBWS 131600Z 18013KT 05/M01 A3031 RMK A01 T00541011  RH  064%=      5-min Rain = 0
KBWS 131605Z 18013KT 06/M01 A3031 RMK A01 T00551005  RH  066%=      5-min Rain = 0
KBWS 131610Z 18014KT 06/00 A3031 RMK A01 T005800-0  RH  067%=      5-min Rain = 0
KBWS 131615Z 17013KT 06/M00 A3031 RMK A01 T00591001  RH  066%=      5-min Rain = 0
KBWS 131620Z 18013KT 06/00 A3031 RMK A01 T00590001  RH  067%=      5-min Rain = 0
KBWS 131625Z 19011G16KT 07/00 A3031 RMK A01 T00650002  RH  065%=      5-min Rain = 0
KBWS 131630Z 18013G19KT 06/00 A3031 RMK A01 T00610003  RH  067%=      5-min Rain = 0
KBWS 131635Z 19014KT 06/01 A3031 RMK A01 T00640005  RH  067%=      5-min Rain = 0
KBWS 131640Z 19015KT 07/01 A3031 RMK A01 T00660007  RH  067%=      5-min Rain = 0
KBWS 131645Z 19013KT 07/01 A3031 RMK A01 T00690007  RH  065%=      5-min Rain = 0
KBWS 131650Z 20013KT 07/01 A3032 RMK A01 T00690007  RH  065%=      5-min Rain = 0
KBWS 131655Z 20012KT 07/01 A3032 RMK A01 T00700007  RH  065%=      5-min Rain = 0
KBWS 131700Z 20013KT 07/01 A3032 RMK A01 T00740006  RH  063%=      5-min Rain = 0
KBWS 131705Z 19013KT 08/01 A3031 RMK A01 T00760006  RH  062%=      5-min Rain = 0
KBWS 131710Z 19012KT 08/01 A3031 RMK A01 T00790005  RH  060%=      5-min Rain = 0
KBWS 131715Z 18011KT 08/01 A3031 RMK A01 T00790005  RH  060%=      5-min Rain = 0
KBWS 131720Z 19013KT 08/00 A3032 RMK A01 T00800004  RH  059%=      5-min Rain = 0
KBWS 131725Z 19010G15KT 08/00 A3032 RMK A01 T00830004  RH  058%=      5-min Rain = 0
KBWS 131730Z 19011KT 09/00 A3032 RMK A01 T00860003  RH  057%=      5-min Rain = 0
KBWS 131735Z 20012KT 09/00 A3031 RMK A01 T00880002  RH  056%=      5-min Rain = 0
KBWS 131740Z 19010KT 09/00 A3031 RMK A01 T00870002  RH  056%=      5-min Rain = 0
KBWS 131745Z 19010KT 09/00 A3031 RMK A01 T00900003  RH  055%=      5-min Rain = 0
KBWS 131750Z 20010G15KT 09/00 A303 RMK A01 T00920002  RH  054%=      5-min Rain = 0
KBWS 131755Z 19010KT 10/00 A303 RMK A01 T00950002  RH  053%=      5-min Rain = 0
KBWS 131800Z 17010KT 10/00 A3029 RMK A01 T00980003  RH  052%=      5-min Rain = 0
KBWS 131805Z 20011G18KT 10/00 A3029 RMK A01 T01030004  RH  051%=      5-min Rain = 0
KBWS 131810Z 19010KT 11/00 A3029 RMK A01 T01050004  RH  050%=      5-min Rain = 0
KBWS 131815Z 21012KT 11/00 A3029 RMK A01 T01050004  RH  050%=      5-min Rain = 0
KBWS 131820Z 20012KT 11/00 A3029 RMK A01 T01050004  RH  050%=      5-min Rain = 0
KBWS 131825Z 18010KT 11/01 A3029 RMK A01 T01070005  RH  050%=      5-min Rain = 0
KBWS 131830Z 19010G19KT 11/01 A3029 RMK A01 T01110006  RH  049%=      5-min Rain = 0
KBWS 131835Z 19009KT 11/01 A3029 RMK A01 T01100006  RH  049%=      5-min Rain = 0
KBWS 131840Z 17010KT 11/01 A3028 RMK A01 T01120007  RH  049%=      5-min Rain = 0
KBWS 131845Z 18011KT 11/01 A3028 RMK A01 T01120007  RH  049%=      5-min Rain = 0
KBWS 131850Z 17012KT 12/01 A3028 RMK A01 T01160007  RH  048%=      5-min Rain = 0
KBWS 131855Z 17010KT 12/01 A3028 RMK A01 T01170007  RH  048%=      5-min Rain = 0
KBWS 131900Z 18011KT 12/01 A3028 RMK A01 T01210007  RH  046%=      5-min Rain = 0
KBWS 131905Z 18009G14KT 12/01 A3028 RMK A01 T01180007  RH  047%=      5-min Rain = 0
KBWS 131910Z 18010KT 12/01 A3028 RMK A01 T01190007  RH  047%=      5-min Rain = 0
KBWS 131915Z 17010KT 12/01 A3028 RMK A01 T01230009  RH  046%=      5-min Rain = 0
KBWS 131920Z 18011KT 13/01 A3028 RMK A01 T01260010  RH  045%=      5-min Rain = 0
KBWS 131925Z 18011G16KT 13/01 A3027 RMK A01 T01260010  RH  046%=      5-min Rain = 0
KBWS 131930Z 18012G17KT 13/01 A3027 RMK A01 T01290010  RH  045%=      5-min Rain = 0
KBWS 131935Z 17011G16KT 13/01 A3027 RMK A01 T01300010  RH  044%=      5-min Rain = 0
KBWS 131940Z 17010KT 13/01 A3027 RMK A01 T01270009  RH  045%=      5-min Rain = 0
KBWS 131945Z 17010KT 13/01 A3026 RMK A01 T01300009  RH  044%=      5-min Rain = 0
KBWS 131950Z 17010KT 13/01 A3026 RMK A01 T01330009  RH  043%=      5-min Rain = 0
KBWS 131955Z 17009G15KT 14/01 A3026 RMK A01 T01350010  RH  043%=      5-min Rain = 0
KBWS 132000Z 19010KT 14/01 A3026 RMK A01 T01370011  RH  043%=      5-min Rain = 0
KBWS 132005Z 18009G14KT 14/01 A3025 RMK A01 T01380012  RH  043%=      5-min Rain = 0
KBWS 132010Z 17008G13KT 14/01 A3025 RMK A01 T01400014  RH  043%=      5-min Rain = 0
KBWS 132015Z 18010G16KT 14/02 A3024 RMK A01 T01420015  RH  043%=      5-min Rain = 0
KBWS 132020Z 16009G15KT 14/02 A3024 RMK A01 T01420017  RH  043%=      5-min Rain = 0
KBWS 132025Z 17010KT 14/02 A3023 RMK A01 T01430017  RH  043%=      5-min Rain = 0
KBWS 132030Z 16010G15KT 15/02 A3023 RMK A01 T01460018  RH  043%=      5-min Rain = 0
KBWS 132035Z 17010KT 15/02 A3023 RMK A01 T01500019  RH  042%=      5-min Rain = 0
KBWS 132040Z 16010G15KT 15/02 A3023 RMK A01 T01500020  RH  042%=      5-min Rain = 0
KBWS 132045Z 16009KT 15/02 A3024 RMK A01 T01510021  RH  042%=      5-min Rain = 0
KBWS 132050Z 16009KT 15/02 A3023 RMK A01 T01540022  RH  041%=      5-min Rain = 0
KBWS 132055Z 15008G13KT 15/02 A3023 RMK A01 T01520022  RH  042%=      5-min Rain = 0
KBWS 132100Z 16009KT 15/02 A3023 RMK A01 T01540022  RH  041%=      5-min Rain = 0
KBWS 132105Z 16010KT 16/02 A3023 RMK A01 T01560023  RH  041%=      5-min Rain = 0
KBWS 132110Z 18010G15KT 16/02 A3023 RMK A01 T01570023  RH  041%=      5-min Rain = 0
KBWS 132115Z 17009G14KT 16/02 A3023 RMK A01 T01580023  RH  041%=      5-min Rain = 0
KBWS 132120Z 17009KT 16/03 A3023 RMK A01 T01620025  RH  040%=      5-min Rain = 0
KBWS 132125Z 17010G15KT 17/02 A3023 RMK A01 T01650024  RH  039%=      5-min Rain = 0
KBWS 132130Z 18009G15KT 16/02 A3023 RMK A01 T01610024  RH  040%=      5-min Rain = 0
KBWS 132135Z 17009KT 16/02 A3023 RMK A01 T01600023  RH  040%=      5-min Rain = 0
KBWS 132140Z 19009KT 16/02 A3023 RMK A01 T01640023  RH  039%=      5-min Rain = 0
KBWS 132145Z 18009KT 16/02 A3023 RMK A01 T01630023  RH  039%=      5-min Rain = 0
KBWS 132150Z 17009KT 16/02 A3023 RMK A01 T01630022  RH  039%=      5-min Rain = 0
KBWS 132155Z 18009KT 16/02 A3023 RMK A01 T01640023  RH  039%=      5-min Rain = 0
KBWS 132200Z 18009KT 16/02 A3023 RMK A01 T01640021  RH  038%=      5-min Rain = 0
KBWS 132205Z 19008G13KT 16/02 A3023 RMK A01 T01620021  RH  039%=      5-min Rain = 0
KBWS 132210Z 16008KT 17/02 A3022 RMK A01 T01650021  RH  039%=      5-min Rain = 0
KBWS 132215Z 19009KT 17/02 A3023 RMK A01 T01660020  RH  038%=      5-min Rain = 0
KBWS 132220Z 19009KT 16/02 A3023 RMK A01 T01630019  RH  038%=      5-min Rain = 0
KBWS 132225Z 18007KT 16/02 A3023 RMK A01 T01610019  RH  039%=      5-min Rain = 0
KBWS 132230Z 20011KT 16/02 A3022 RMK A01 T01620019  RH  038%=      5-min Rain = 0
KBWS 132235Z 19008KT 16/02 A3022 RMK A01 T01620019  RH  038%=      5-min Rain = 0
KBWS 132240Z 18010KT 16/02 A3022 RMK A01 T01640018  RH  038%=      5-min Rain = 0
KBWS 132245Z 19008KT 16/02 A3022 RMK A01 T01620018  RH  038%=      5-min Rain = 0
KBWS 132250Z 19008KT 16/02 A3022 RMK A01 T01640018  RH  038%=      5-min Rain = 0
KBWS 132255Z 18008KT 16/02 A3023 RMK A01 T01640019  RH  038%=      5-min Rain = 0
KBWS 132300Z 19008KT 16/02 A3023 RMK A01 T01640018  RH  038%=      5-min Rain = 0
KBWS 132305Z 20008KT 16/02 A3023 RMK A01 T01630015  RH  037%=      5-min Rain = 0
KBWS 132310Z 18007KT 16/02 A3023 RMK A01 T01620017  RH  038%=      5-min Rain = 0
KBWS 132315Z 17008KT 16/02 A3023 RMK A01 T01600016  RH  038%=      5-min Rain = 0
KBWS 132320Z 18008KT 16/02 A3023 RMK A01 T01600016  RH  038%=      5-min Rain = 0
KBWS 132325Z 18007KT 16/02 A3023 RMK A01 T01590016  RH  038%=      5-min Rain = 0
KBWS 132330Z 17008KT 16/02 A3023 RMK A01 T01570016  RH  039%=      5-min Rain = 0
KBWS 132335Z 18008KT 16/02 A3023 RMK A01 T01570016  RH  039%=      5-min Rain = 0
KBWS 132340Z 17006KT 16/02 A3023 RMK A01 T01560015  RH  039%=      5-min Rain = 0
KBWS 132345Z 17007KT 16/02 A3023 RMK A01 T01560015  RH  039%=      5-min Rain = 0
KBWS 132350Z 17007KT 15/02 A3022 RMK A01 T01540015  RH  039%=      5-min Rain = 0
KBWS 132355Z 16008KT 15/02 A3022 RMK A01 T01510016  RH  040%=      5-min Rain = 0
KBWS 140000Z 16008KT 15/01 A3023 RMK A01 T01470014  RH  041%=      5-min Rain = 0
KBWS 140005Z 16008KT 14/01 A3023 RMK A01 T01430014  RH  042%=      5-min Rain = 0
KBWS 140010Z 16007KT 14/01 A3023 RMK A01 T01390012  RH  042%=      5-min Rain = 0
KBWS 140015Z 16006KT 14/01 A3023 RMK A01 T01350010  RH  043%=      5-min Rain = 0
KBWS 140020Z 16007KT 13/01 A3023 RMK A01 T01300009  RH  044%=      5-min Rain = 0
KBWS 140025Z 16007KT 12/01 A3023 RMK A01 T01230007  RH  045%=      5-min Rain = 0
KBWS 140030Z 16007KT 12/00 A3023 RMK A01 T01190004  RH  046%=      5-min Rain = 0
KBWS 140035Z 16006KT 12/01 A3023 RMK A01 T01150006  RH  047%=      5-min Rain = 0
KBWS 140040Z 15005KT 11/01 A3023 RMK A01 T01120006  RH  049%=      5-min Rain = 0
KBWS 140045Z 14005KT 11/01 A3023 RMK A01 T01110009  RH  050%=      5-min Rain = 0
KBWS 140050Z 14005KT 11/01 A3023 RMK A01 T01090005  RH  049%=      5-min Rain = 0
KBWS 140055Z 14006KT 11/00 A3023 RMK A01 T01070004  RH  049%=      5-min Rain = 0
KBWS 140100Z 15007KT 11/00 A3024 RMK A01 T01050002  RH  049%=      5-min Rain = 0
KBWS 140105Z 16007KT 11/00 A3024 RMK A01 T01060004  RH  050%=      5-min Rain = 0
KBWS 140110Z 16006KT 11/00 A3024 RMK A01 T01080003  RH  049%=      5-min Rain = 0
KBWS 140115Z 16006KT 11/00 A3024 RMK A01 T01060002  RH  049%=      5-min Rain = 0
KBWS 140120Z 16007KT 11/00 A3024 RMK A01 T01060002  RH  049%=      5-min Rain = 0
KBWS 140125Z 16007KT 11/00 A3024 RMK A01 T01050000  RH  049%=      5-min Rain = 0
KBWS 140130Z 16007KT 10/M00 A3024 RMK A01 T01011003  RH  049%=      5-min Rain = 0
KBWS 140135Z 16007KT 10/M00 A3024 RMK A01 T00971004  RH  050%=      5-min Rain = 0
KBWS 140140Z 16007KT 10/M00 A3024 RMK A01 T00981001  RH  050%=      5-min Rain = 0
KBWS 140145Z 17006KT 10/M00 A3024 RMK A01 T00991003  RH  050%=      5-min Rain = 0
KBWS 140150Z 17006KT 10/M00 A3024 RMK A01 T00981003  RH  050%=      5-min Rain = 0
KBWS 140155Z 17006KT 10/M00 A3024 RMK A01 T00991003  RH  050%=      5-min Rain = 0
KBWS 140200Z 17006KT 10/M00 A3024 RMK A01 T00961004  RH  050%=      5-min Rain = 0
KBWS 140205Z 17006KT 10/M00 A3024 RMK A01 T00951002  RH  051%=      5-min Rain = 0
KBWS 140210Z 17006KT 10/00 A3025 RMK A01 T00970000  RH  052%=      5-min Rain = 0
KBWS 140215Z 17005KT 10/00 A3025 RMK A01 T00980001  RH  051%=      5-min Rain = 0
KBWS 140220Z 17005KT 10/00 A3025 RMK A01 T009700-0  RH  051%=      5-min Rain = 0
KBWS 140225Z 17005KT 10/00 A3025 RMK A01 T00970000  RH  052%=      5-min Rain = 0
KBWS 140230Z 16005KT 10/00 A3025 RMK A01 T00960000  RH  052%=      5-min Rain = 0
KBWS 140235Z 16005KT 10/M00 A3025 RMK A01 T00961001  RH  052%=      5-min Rain = 0
KBWS 140240Z 16006KT 10/00 A3025 RMK A01 T00960001  RH  052%=      5-min Rain = 0
KBWS 140245Z 16006KT 09/M00 A3025 RMK A01 T00941002  RH  052%=      5-min Rain = 0
KBWS 140250Z 16006KT 10/M00 A3025 RMK A01 T00951001  RH  052%=      5-min Rain = 0
KBWS 140255Z 16006KT 09/M01 A3025 RMK A01 T00911006  RH  051%=      5-min Rain = 0
KBWS 140300Z 16006KT 09/M00 A3025 RMK A01 T00901004  RH  052%=      5-min Rain = 0
KBWS 140305Z 15006KT 09/M01 A3025 RMK A01 T00901005  RH  052%=      5-min Rain = 0
KBWS 140310Z 16007KT 09/M01 A3025 RMK A01 T00871006  RH  053%=      5-min Rain = 0
KBWS 140315Z 16007KT 09/M01 A3026 RMK A01 T00871006  RH  053%=      5-min Rain = 0
KBWS 140320Z 16007KT 09/M01 A3025 RMK A01 T00891006  RH  052%=      5-min Rain = 0
KBWS 140325Z 16006KT 09/M00 A3025 RMK A01 T00911004  RH  052%=      5-min Rain = 0
KBWS 140330Z 15007KT 09/M00 A3025 RMK A01 T00901004  RH  052%=      5-min Rain = 0
KBWS 140335Z 15006KT 09/M00 A3025 RMK A01 T00851004  RH  054%=      5-min Rain = 0
KBWS 140340Z 16006KT 08/M01 A3025 RMK A01 T00831005  RH  054%=      5-min Rain = 0
KBWS 140345Z 17006KT 08/M01 A3026 RMK A01 T00821006  RH  054%=      5-min Rain = 0
KBWS 140350Z 18005KT 09/M00 A3026 RMK A01 T00861003  RH  054%=      5-min Rain = 0
KBWS 140355Z 18005KT 09/00 A3026 RMK A01 T00910000  RH  054%=      5-min Rain = 0
KBWS 140400Z 18005KT 09/00 A3026 RMK A01 T00930003  RH  054%=      5-min Rain = 0
KBWS 140405Z 18005KT 09/00 A3026 RMK A01 T00940004  RH  054%=      5-min Rain = 0
KBWS 140410Z 18005KT 10/00 A3026 RMK A01 T00960004  RH  053%=      5-min Rain = 0
KBWS 140415Z 18004KT 10/00 A3026 RMK A01 T00950002  RH  053%=      5-min Rain = 0
KBWS 140420Z 19003KT 09/00 A3026 RMK A01 T00910002  RH  054%=      5-min Rain = 0
KBWS 140425Z 17002KT 09/01 A3026 RMK A01 T00900005  RH  056%=      5-min Rain = 0
KBWS 140430Z 16002KT 09/00 A3026 RMK A01 T00890001  RH  055%=      5-min Rain = 0
KBWS 140435Z 17002KT 09/00 A3026 RMK A01 T00880003  RH  056%=      5-min Rain = 0
KBWS 140440Z 18002KT 09/00 A3026 RMK A01 T00900004  RH  056%=      5-min Rain = 0
KBWS 140445Z 19002KT 09/01 A3026 RMK A01 T00920006  RH  055%=      5-min Rain = 0
KBWS 140450Z 18002KT 09/01 A3026 RMK A01 T00940007  RH  055%=      5-min Rain = 0
KBWS 140455Z 17003KT 10/01 A3025 RMK A01 T00950007  RH  055%=      5-min Rain = 0
KBWS 140500Z 18003KT 09/01 A3025 RMK A01 T00940007  RH  055%=      5-min Rain = 0
KBWS 140505Z 19003KT 10/01 A3026 RMK A01 T00960008  RH  055%=      5-min Rain = 0
KBWS 140510Z 19003KT 10/01 A3026 RMK A01 T00980007  RH  053%=      5-min Rain = 0
KBWS 140515Z 19005KT 10/01 A3026 RMK A01 T00980005  RH  053%=      5-min Rain = 0
KBWS 140520Z 19005KT 10/01 A3026 RMK A01 T00980006  RH  053%=      5-min Rain = 0
KBWS 140525Z 19004KT 10/01 A3025 RMK A01 T00980006  RH  054%=      5-min Rain = 0
KBWS 140530Z 20006KT 10/01 A3026 RMK A01 T00980006  RH  053%=      5-min Rain = 0
KBWS 140535Z 20007KT 10/01 A3026 RMK A01 T00960006  RH  054%=      5-min Rain = 0
KBWS 140540Z 20007KT 09/00 A3026 RMK A01 T00900003  RH  055%=      5-min Rain = 0
KBWS 140545Z 19007KT 09/00 A3025 RMK A01 T00880001  RH  055%=      5-min Rain = 0
KBWS 140550Z 20008KT 09/00 A3025 RMK A01 T00860001  RH  056%=      5-min Rain = 0
KBWS 140555Z 20008KT 09/00 A3025 RMK A01 T00880004  RH  056%=      5-min Rain = 0

Page generated in 0.01 seconds.